Airfield :
LOGIN :

Register | Disclaimer

   EN    FR    IT 

 










Legend :    VFR   Marginal VFR   IFR   Intensive IFR   Very Intensive IFR
Visi :
Ceiling :
>= 8 km
>= 3000ft
5 to 8 km
1000 to 3000 ft
1500m to 5 km
500 to 1000 ft
800 to 1500m
200 to 500 ft
< 800m
< 200 ft
Symbols :   Thunderstorms  Fog  Heavy snow  Heavy precipitations  Wind > 20 kt
SIGMETs :     Misc.  Thunderstorms  Icing  Turbulence  Mountain Waves  Volcanic Ashes






- Airport Elevation : 464 ft
- IATA code : EVX


LFOE - Evreux

CURRENT METAR :
  • 060600Z AUTO 11002KT CAVOK 09/02 Q1016 BECMG 4000 -RA BKN014 BKN055

EXPIRED METARs :
  • 060530Z AUTO 13005KT CAVOK 08/02 Q1015 BECMG 4000 -RA BKN014 BKN055
  • 060500Z AUTO 13005KT CAVOK 08/02 Q1015 BECMG 4000 -RA BKN014 BKN055
  • 060430Z AUTO 11003KT CAVOK 09/02 Q1015 BECMG 4000 -RA BKN014 BKN055
  • 060400Z AUTO 20005KT CAVOK 09/02 Q1014
  • 060330Z AUTO 19007KT CAVOK 09/02 Q1014

TAF AMD TAF LFOE
Valid from the 06 at 04:00 until the 07 at 03:00 UTC


060400Z 0604/0703 19005KT CAVOK
BECMG 0606/0608 4000 -RA BKN014 BKN055
TEMPO 0608/0611 2500 RA BKN010
BECMG 0611/0613 34010KT 9999 NSW SCT018 SCT045



MET'MAP, your aeronautical weather chart ! - Copyright ORBIFLY December 2007 - Disclaimer

ORBIFLY MET'MAP TEAM :

Programming & Development : Alexandra Zaïnal
Concept & original design : Baudouin d'Aumeries
Assistance for programming : Marc-Olivier Méhu
Technical & hardware support : Manuel Goepfert

Contact : metmap@orbifly.com




SOURCES & CREDITS :

   NOAA